| Date | Time | Temp. (oF) | Dew Point (oF) | Rel. Hum. (%) | Press. (in.) | Wind Dir. | Wind Speed (mph) | Hourly Rainfall (in.) |
|
|---|---|---|---|---|---|---|---|---|---|
| 1 | 11/21 | 00:00 | 38 | 37 | 100 | 30.36 | SE | 2 | 0.00 |
| 2 | 11/20 | 23:00 | 42 | 41 | 98 | 30.35 | NNE | 2 | 0.00 |
| 3 | 11/20 | 22:00 | 42 | 41 | 98 | 30.32 | N | 2 | 0.00 |
| 4 | 11/20 | 21:00 | 41 | 40 | 97 | 30.31 | NW | 3 | 0.00 |
| 5 | 11/20 | 20:00 | 43 | 41 | 93 | 30.29 | NW | 2 | 0.00 |
| 6 | 11/20 | 19:00 | 46 | 40 | 81 | 30.27 | SW | 2 | 0.00 |
| 7 | 11/20 | 18:00 | 48 | 39 | 73 | 30.24 | NW | 3 | 0.00 |
| 8 | 11/20 | 17:00 | 50 | 40 | 70 | 30.22 | N | 3 | 0.00 |
| 9 | 11/20 | 16:00 | 53 | 40 | 63 | 30.20 | NNW | 3 | 0.00 |
| 10 | 11/20 | 15:00 | 54 | 41 | 62 | 30.18 | WNW | 3 | 0.00 |
| 11 | 11/20 | 14:00 | 54 | 42 | 65 | 30.17 | WNW | 5 | 0.00 |
| 12 | 11/20 | 13:00 | 53 | 40 | 63 | 30.17 | NNW | 6 | 0.00 |
| 13 | 11/20 | 12:00 | 53 | 40 | 62 | 30.19 | WNW | 10 | 0.00 |
| 14 | 11/20 | 11:00 | 51 | 42 | 72 | 30.20 | W | 4 | 0.00 |
| 15 | 11/20 | 10:00 | 48 | 41 | 77 | 30.20 | N | 2 | 0.00 |
| 16 | 11/20 | 09:00 | 44 | 39 | 85 | 30.20 | WSW | 2 | 0.00 |
| 17 | 11/20 | 08:00 | 39 | 38 | 97 | 30.19 | NNE | 2 | 0.00 |
| 18 | 11/20 | 07:00 | 37 | 36 | 98 | 30.18 | W | 2 | 0.00 |
| 19 | 11/20 | 06:00 | 37 | 36 | 97 | 30.16 | W | 2 | 0.00 |
| 20 | 11/20 | 05:00 | 37 | 34 | 91 | 30.16 | WSW | 1 | 0.00 |
| 21 | 11/20 | 04:00 | 37 | 34 | 89 | 30.17 | SW | 4 | 0.00 |
| 22 | 11/20 | 03:00 | 39 | 32 | 78 | 30.18 | SSW | 3 | 0.00 |
| 23 | 11/20 | 02:00 | 39 | 32 | 77 | 30.19 | WSW | 3 | 0.00 |
| 24 | 11/20 | 01:00 | 39 | 33 | 81 | 30.20 | W | 3 | 0.00 |